Time;durP1;ratioP1;P1;durP2;ratioP2;P2;SDS_P1;SDS_P2;PMS_P1;PMS_P2;Temp;Humidity;BMP_temperature;BMP_pressure;BME280_temperature;BME280_humidity;BME280_pressure;Samples;Min_cycle;Max_cycle;Signal;HPM_P1;HPM_P2
2023/04/07 00:00:56;;;;;;;28.55;16.45;;;6.60;99.90;;;;;;5052971;28;20029;-67
2023/04/07 00:03:22;;;;;;;32.63;18.02;;;6.60;99.90;;;;;;5071326;28;20101;-67
2023/04/07 00:05:48;;;;;;;29.20;18.02;;;6.60;99.90;;;;;;5051754;28;20041;-67
2023/04/07 00:08:14;;;;;;;31.77;19.30;;;6.60;99.90;;;;;;5070557;28;20036;-67
2023/04/07 00:10:40;;;;;;;31.20;19.45;;;6.60;99.90;;;;;;5069590;28;20041;-67
2023/04/07 00:13:06;;;;;;;28.08;17.27;;;6.60;99.90;;;;;;5064560;28;20036;-67
2023/04/07 00:15:31;;;;;;;29.08;18.50;;;6.50;99.90;;;;;;5085021;28;20040;-67
2023/04/07 00:17:57;;;;;;;31.15;19.95;;;6.50;99.90;;;;;;5070830;28;20033;-67
2023/04/07 00:20:23;;;;;;;34.10;19.48;;;6.60;99.90;;;;;;5058851;28;20071;-67
2023/04/07 00:22:49;;;;;;;32.47;19.90;;;6.50;99.90;;;;;;5070479;28;20147;-67
2023/04/07 00:25:15;;;;;;;31.60;19.13;;;6.50;99.90;;;;;;5064279;28;20040;-66
2023/04/07 00:27:40;;;;;;;35.28;21.55;;;6.60;99.90;;;;;;5068064;28;20398;-67
2023/04/07 00:30:07;;;;;;;35.10;20.63;;;6.50;99.90;;;;;;5066234;28;20080;-67
2023/04/07 00:32:33;;;;;;;32.28;19.52;;;6.60;99.90;;;;;;5058674;28;20060;-67
2023/04/07 00:34:58;;;;;;;33.08;20.48;;;6.60;99.90;;;;;;5067754;28;20040;-67
2023/04/07 00:37:24;;;;;;;28.70;18.60;;;6.50;99.90;;;;;;5068490;28;20044;-66
2023/04/07 00:39:51;;;;;;;31.13;19.45;;;6.50;99.90;;;;;;5067754;28;20031;-67
2023/04/07 00:42:17;;;;;;;32.28;19.45;;;6.50;99.90;;;;;;5069913;28;20045;-67
2023/04/07 00:44:43;;;;;;;35.85;20.83;;;6.50;99.90;;;;;;5068401;28;20521;-67
2023/04/07 00:47:09;;;;;;;34.90;20.50;;;6.50;99.90;;;;;;5069075;28;20079;-67
2023/04/07 00:49:36;;;;;;;30.42;19.88;;;6.50;99.90;;;;;;5066788;28;20092;-67
2023/04/07 00:52:04;;;;;;;35.95;20.85;;;6.50;99.90;;;;;;5069949;28;20037;-68
2023/04/07 00:54:30;;;;;;;35.45;20.98;;;6.50;99.90;;;;;;5051864;28;20044;-67
2023/04/07 00:56:56;;;;;;;32.70;19.40;;;6.60;99.90;;;;;;5081932;28;20029;-68
2023/04/07 00:59:22;;;;;;;35.63;19.55;;;6.50;99.90;;;;;;5067413;28;20433;-67
2023/04/07 01:01:57;;;;;;;38.47;22.20;;;6.60;99.90;;;;;;5069464;28;20039;-67
2023/04/07 01:04:34;;;;;;;39.60;20.63;;;6.60;99.90;;;;;;5067086;28;20036;-67
2023/04/07 01:07:16;;;;;;;35.83;20.48;;;6.50;99.90;;;;;;5066539;28;20048;-67
2023/04/07 01:09:48;;;;;;;35.47;20.67;;;6.50;99.90;;;;;;5069798;28;20043;-67
2023/04/07 01:12:23;;;;;;;34.60;20.85;;;6.50;99.90;;;;;;5041711;28;20112;-67
2023/04/07 01:15:04;;;;;;;34.65;20.17;;;6.50;99.90;;;;;;5041547;28;20078;-67
2023/04/07 01:17:33;;;;;;;35.40;20.67;;;6.50;99.90;;;;;;5041105;28;20040;-67
2023/04/07 01:20:07;;;;;;;39.33;22.33;;;6.50;99.90;;;;;;5065920;28;20036;-67
2023/04/07 01:22:42;;;;;;;38.65;21.52;;;6.50;99.90;;;;;;5068942;28;20063;-67
2023/04/07 01:25:38;;;;;;;36.17;21.67;;;6.50;99.90;;;;;;5068719;28;20075;-67
2023/04/07 01:28:04;;;;;;;40.25;22.42;;;6.50;99.90;;;;;;5066351;28;20039;-67
2023/04/07 01:30:32;;;;;;;40.05;22.65;;;6.50;99.90;;;;;;5068093;28;20444;-67
2023/04/07 01:32:59;;;;;;;42.53;25.02;;;6.50;99.90;;;;;;5068551;28;20040;-68
2023/04/07 01:35:29;;;;;;;40.42;23.42;;;6.50;99.90;;;;;;5069238;28;20401;-67
2023/04/07 01:37:56;;;;;;;37.95;21.88;;;6.50;99.90;;;;;;5065739;28;20052;-68
2023/04/07 01:40:24;;;;;;;46.78;23.92;;;6.50;99.90;;;;;;5067586;28;20563;-67
2023/04/07 01:42:50;;;;;;;45.75;23.35;;;6.50;99.90;;;;;;5074534;28;20077;-67
2023/04/07 01:45:18;;;;;;;46.13;25.42;;;6.40;99.90;;;;;;5075961;28;20120;-68
2023/04/07 01:47:44;;;;;;;44.30;24.90;;;6.50;99.90;;;;;;5075890;28;20060;-67
2023/04/07 01:50:11;;;;;;;50.72;25.65;;;6.50;99.90;;;;;;5057224;28;20056;-67
2023/04/07 01:52:37;;;;;;;43.67;23.13;;;6.50;99.90;;;;;;5069938;28;20044;-67
2023/04/07 01:55:04;;;;;;;44.78;23.50;;;6.50;99.90;;;;;;5086641;28;20444;-67
2023/04/07 01:57:30;;;;;;;47.00;24.48;;;6.40;99.90;;;;;;5075179;28;20060;-67
2023/04/07 01:59:56;;;;;;;45.58;25.75;;;6.50;99.90;;;;;;5076039;28;20547;-67
2023/04/07 02:02:22;;;;;;;45.45;24.15;;;6.40;99.90;;;;;;5074903;28;20501;-67
2023/04/07 02:04:55;;;;;;;45.25;25.85;;;6.40;99.90;;;;;;5075157;28;20059;-67
2023/04/07 02:07:30;;;;;;;49.05;25.23;;;6.40;99.90;;;;;;5074601;28;20047;-67
2023/04/07 02:09:58;;;;;;;46.20;25.50;;;6.40;99.90;;;;;;5074917;28;20039;-67
2023/04/07 02:12:27;;;;;;;45.47;25.33;;;6.40;99.90;;;;;;5057862;28;20386;-67
2023/04/07 02:14:55;;;;;;;46.25;24.15;;;6.40;99.90;;;;;;5075394;28;20399;-67
2023/04/07 02:17:23;;;;;;;50.75;25.85;;;6.40;99.90;;;;;;5064354;28;20583;-67
2023/04/07 02:19:51;;;;;;;43.60;24.52;;;6.40;99.90;;;;;;5075003;28;20048;-67
2023/04/07 02:22:18;;;;;;;47.20;23.88;;;6.40;99.90;;;;;;5067585;28;20085;-67
2023/04/07 02:24:43;;;;;;;47.60;23.48;;;6.40;99.90;;;;;;5071094;28;20036;-68
2023/04/07 02:27:09;;;;;;;47.22;24.73;;;6.40;99.90;;;;;;5075422;28;20036;-67
2023/04/07 02:29:35;;;;;;;52.85;26.90;;;6.40;99.90;;;;;;5066136;28;20044;-67
2023/04/07 02:32:00;;;;;;;47.85;25.40;;;6.40;99.90;;;;;;5075416;28;20044;-68
2023/04/07 02:34:26;;;;;;;45.65;24.05;;;6.40;99.90;;;;;;5073581;28;20036;-67
2023/04/07 02:36:52;;;;;;;45.90;25.23;;;6.40;99.90;;;;;;5080788;28;20040;-67
2023/04/07 02:39:18;;;;;;;54.28;25.90;;;6.40;99.90;;;;;;5089331;28;20548;-67
2023/04/07 02:41:44;;;;;;;47.80;24.70;;;6.50;99.90;;;;;;5075380;28;20037;-68
2023/04/07 02:44:09;;;;;;;55.75;26.55;;;6.50;99.90;;;;;;5073143;28;20469;-68
2023/04/07 02:46:35;;;;;;;59.53;26.40;;;6.50;99.90;;;;;;5075362;28;20121;-68
2023/04/07 02:49:02;;;;;;;52.40;25.02;;;6.50;99.90;;;;;;5068117;28;20114;-68
2023/04/07 02:51:32;;;;;;;62.78;27.15;;;6.50;99.90;;;;;;5061645;28;20498;-68
2023/04/07 02:54:20;;;;;;;52.30;25.95;;;6.40;99.90;;;;;;5068513;28;20125;-68
2023/04/07 02:56:46;;;;;;;52.20;25.73;;;6.40;99.90;;;;;;5069849;28;20076;-68
2023/04/07 02:59:12;;;;;;;52.80;25.75;;;6.40;99.90;;;;;;5071897;28;20047;-68
2023/04/07 03:01:39;;;;;;;49.17;25.63;;;6.40;99.90;;;;;;5070485;28;20046;-68
2023/04/07 03:04:04;;;;;;;49.50;25.90;;;6.40;99.90;;;;;;5065501;28;20059;-68
2023/04/07 03:06:32;;;;;;;48.33;25.50;;;6.40;99.90;;;;;;5071659;28;20493;-68
2023/04/07 03:08:57;;;;;;;44.80;23.77;;;6.40;99.90;;;;;;5070109;28;20044;-67
2023/04/07 03:11:23;;;;;;;51.50;24.88;;;6.40;99.90;;;;;;5065296;28;20079;-68
2023/04/07 03:13:49;;;;;;;48.53;24.20;;;6.40;99.90;;;;;;5048938;28;20040;-68
2023/04/07 03:16:15;;;;;;;45.28;23.60;;;6.40;99.90;;;;;;5061448;28;20131;-68
2023/04/07 03:18:40;;;;;;;46.10;22.75;;;6.40;99.90;;;;;;5067697;28;20051;-69
2023/04/07 03:21:07;;;;;;;44.35;22.38;;;6.40;99.90;;;;;;5070865;28;20447;-68
2023/04/07 03:23:32;;;;;;;46.50;23.45;;;6.40;99.90;;;;;;5061222;28;20049;-68
2023/04/07 03:25:58;;;;;;;40.53;22.35;;;6.40;99.90;;;;;;5069647;28;20189;-68
2023/04/07 03:28:24;;;;;;;45.20;23.88;;;6.40;99.90;;;;;;5071594;28;20048;-69
2023/04/07 03:30:50;;;;;;;44.03;22.98;;;6.40;99.90;;;;;;5071140;28;20035;-68
2023/04/07 03:33:15;;;;;;;40.53;22.30;;;6.40;99.90;;;;;;5071428;28;20032;-69
2023/04/07 03:35:41;;;;;;;45.20;23.13;;;6.40;99.90;;;;;;5070566;28;20040;-69
2023/04/07 03:38:07;;;;;;;45.35;22.83;;;6.40;99.90;;;;;;5069742;28;20071;-69
2023/04/07 03:40:34;;;;;;;42.15;22.48;;;6.40;99.90;;;;;;5071477;28;20044;-68
2023/04/07 03:43:00;;;;;;;47.53;23.38;;;6.40;99.90;;;;;;5069504;28;20115;-68
2023/04/07 03:45:26;;;;;;;47.03;22.77;;;6.40;99.90;;;;;;5071419;28;20127;-68
2023/04/07 03:47:52;;;;;;;41.42;23.05;;;6.40;99.90;;;;;;5068208;28;20108;-68
2023/04/07 03:50:19;;;;;;;37.83;21.80;;;6.40;99.90;;;;;;5066816;28;20103;-68
2023/04/07 03:52:46;;;;;;;44.35;23.77;;;6.40;99.90;;;;;;5069063;28;20044;-68
2023/04/07 03:55:11;;;;;;;42.83;22.45;;;6.40;99.90;;;;;;5064376;28;20060;-68
2023/04/07 03:57:37;;;;;;;41.67;23.42;;;6.40;99.90;;;;;;5069064;28;20044;-68
2023/04/07 04:00:04;;;;;;;45.17;21.80;;;6.40;99.90;;;;;;5067012;28;20190;-68
2023/04/07 04:02:30;;;;;;;40.10;21.38;;;6.40;99.90;;;;;;5070895;28;20028;-68
2023/04/07 04:04:55;;;;;;;45.83;22.88;;;6.40;99.90;;;;;;5061122;28;20119;-68
2023/04/07 04:07:21;;;;;;;38.33;20.58;;;6.40;99.90;;;;;;5068963;28;20074;-68
2023/04/07 04:09:47;;;;;;;40.17;21.48;;;6.40;99.90;;;;;;5070869;28;20055;-68
2023/04/07 04:12:12;;;;;;;39.42;20.92;;;6.40;99.90;;;;;;5070803;28;20047;-68
2023/04/07 04:14:38;;;;;;;38.15;20.77;;;6.30;99.90;;;;;;5081410;28;20041;-68
2023/04/07 04:17:04;;;;;;;40.45;21.40;;;6.40;99.90;;;;;;5070558;28;20036;-68
2023/04/07 04:19:30;;;;;;;35.90;21.27;;;6.30;99.90;;;;;;5064656;28;20193;-67
2023/04/07 04:21:56;;;;;;;34.67;19.50;;;6.40;99.90;;;;;;5070380;28;20036;-68
2023/04/07 04:24:21;;;;;;;36.17;20.42;;;6.40;99.90;;;;;;5043112;28;20036;-67
2023/04/07 04:26:47;;;;;;;38.75;21.23;;;6.40;99.90;;;;;;5051430;28;20041;-68
2023/04/07 04:29:13;;;;;;;38.25;20.88;;;6.30;99.90;;;;;;5069990;28;20485;-68
2023/04/07 04:31:38;;;;;;;32.63;19.27;;;6.30;99.90;;;;;;5064327;28;20048;-68
2023/04/07 04:34:04;;;;;;;32.00;19.20;;;6.30;99.90;;;;;;5070010;28;20392;-68
2023/04/07 04:36:30;;;;;;;37.13;19.38;;;6.30;99.90;;;;;;5061118;28;20099;-68
2023/04/07 04:38:55;;;;;;;38.17;20.08;;;6.30;99.90;;;;;;5065083;28;20527;-68
2023/04/07 04:41:21;;;;;;;36.65;19.23;;;6.30;99.90;;;;;;5066601;28;20032;-68
2023/04/07 04:43:47;;;;;;;37.55;20.17;;;6.30;99.90;;;;;;5070415;28;20032;-68
2023/04/07 04:46:13;;;;;;;33.75;18.95;;;6.30;99.90;;;;;;5070142;28;20058;-68
2023/04/07 04:48:38;;;;;;;35.22;19.45;;;6.30;99.90;;;;;;5066640;28;20057;-68
2023/04/07 04:51:04;;;;;;;38.13;19.40;;;6.30;99.90;;;;;;5069864;28;20146;-68
2023/04/07 04:53:30;;;;;;;38.80;20.52;;;6.30;99.90;;;;;;5068127;28;20047;-68
2023/04/07 04:55:56;;;;;;;38.08;19.88;;;6.30;99.90;;;;;;5069855;28;20056;-67
2023/04/07 04:58:21;;;;;;;36.90;19.92;;;6.30;99.90;;;;;;5069670;28;20041;-68
2023/04/07 05:00:47;;;;;;;34.83;20.38;;;6.30;99.90;;;;;;5082443;28;20067;-68
2023/04/07 05:03:13;;;;;;;37.00;20.48;;;6.30;99.90;;;;;;5068497;28;20111;-68
2023/04/07 05:05:38;;;;;;;38.92;20.50;;;6.30;99.90;;;;;;5068201;28;20485;-68
2023/04/07 05:08:05;;;;;;;37.67;20.70;;;6.30;99.90;;;;;;5066711;28;20072;-68
2023/04/07 05:10:30;;;;;;;39.33;20.02;;;6.30;99.90;;;;;;5061694;28;20507;-68
2023/04/07 05:12:56;;;;;;;35.65;20.17;;;6.30;99.90;;;;;;5069656;28;20119;-68
2023/04/07 05:15:22;;;;;;;35.65;19.83;;;6.30;99.90;;;;;;5069618;28;20040;-67
2023/04/07 05:17:49;;;;;;;39.25;20.90;;;6.30;99.90;;;;;;5063264;28;20114;-67
2023/04/07 05:20:15;;;;;;;41.55;21.55;;;6.30;99.90;;;;;;5068615;28;20116;-68
2023/04/07 05:22:41;;;;;;;39.45;20.58;;;6.30;99.90;;;;;;5060394;28;20029;-68
2023/04/07 05:25:07;;;;;;;34.97;20.00;;;6.30;99.90;;;;;;5024118;28;20332;-67
2023/04/07 05:27:33;;;;;;;37.75;20.67;;;5.80;99.90;;;;;;5069579;28;20045;-67
2023/04/07 05:29:59;;;;;;;36.58;20.38;;;6.30;99.90;;;;;;5060715;28;20106;-67
2023/04/07 05:32:27;;;;;;;36.60;20.23;;;6.30;99.90;;;;;;5067151;28;20052;-67
2023/04/07 05:34:53;;;;;;;38.03;20.70;;;6.30;99.90;;;;;;5068853;28;20032;-67
2023/04/07 05:37:18;;;;;;;38.05;20.45;;;6.30;99.90;;;;;;5065330;28;20101;-67
2023/04/07 05:39:44;;;;;;;38.40;21.48;;;6.30;99.90;;;;;;5066940;28;20568;-68
2023/04/07 05:42:10;;;;;;;37.35;20.67;;;6.30;99.90;;;;;;5061029;28;20047;-68
2023/04/07 05:44:35;;;;;;;42.05;22.45;;;6.30;99.90;;;;;;5069853;28;20033;-68
2023/04/07 05:47:04;;;;;;;36.78;20.60;;;6.30;99.90;;;;;;5038944;28;20076;-67
2023/04/07 05:49:30;;;;;;;37.22;20.58;;;6.30;99.90;;;;;;5064171;28;20412;-67
2023/04/07 05:51:56;;;;;;;40.40;22.67;;;6.30;99.90;;;;;;5065307;28;20541;-67
2023/04/07 05:54:22;;;;;;;42.78;21.83;;;6.30;99.90;;;;;;5068093;28;20127;-67
2023/04/07 05:56:47;;;;;;;39.42;22.30;;;6.30;99.90;;;;;;5084299;28;20123;-68
2023/04/07 05:59:13;;;;;;;40.53;22.40;;;6.30;99.90;;;;;;5069373;28;20052;-68
2023/04/07 06:01:39;;;;;;;43.22;22.35;;;6.30;99.90;;;;;;5067434;28;20091;-68
2023/04/07 06:04:04;;;;;;;41.00;22.67;;;6.30;99.90;;;;;;5068198;28;20496;-67
2023/04/07 06:06:30;;;;;;;36.40;21.20;;;6.30;99.90;;;;;;5068858;28;20096;-67
2023/04/07 06:08:56;;;;;;;42.60;22.38;;;6.30;99.90;;;;;;5051131;28;20400;-67
2023/04/07 06:11:22;;;;;;;42.33;22.85;;;6.30;99.90;;;;;;5065345;28;20055;-67
2023/04/07 06:13:47;;;;;;;43.60;23.45;;;6.40;99.90;;;;;;5083590;28;20075;-67
2023/04/07 06:16:13;;;;;;;39.10;22.20;;;6.40;99.90;;;;;;5069477;28;20040;-67
2023/04/07 06:18:41;;;;;;;40.22;23.13;;;6.40;99.90;;;;;;5066495;28;20043;-67
2023/04/07 06:21:11;;;;;;;48.00;23.90;;;6.40;99.90;;;;;;5064534;28;20037;-67
2023/04/07 06:23:37;;;;;;;46.05;23.75;;;6.40;99.90;;;;;;5050409;28;20570;-68
2023/04/07 06:26:03;;;;;;;40.60;21.58;;;6.40;99.90;;;;;;5069107;28;20033;-67
2023/04/07 06:28:29;;;;;;;37.17;21.13;;;6.50;99.90;;;;;;5070715;28;20485;-68
2023/04/07 06:30:55;;;;;;;40.17;21.75;;;6.50;99.90;;;;;;5068697;28;20061;-67
2023/04/07 06:33:24;;;;;;;38.28;21.65;;;6.50;99.90;;;;;;5058887;28;20044;-67
2023/04/07 06:35:50;;;;;;;34.97;20.30;;;6.50;99.90;;;;;;5068691;28;20040;-67
2023/04/07 06:38:16;;;;;;;35.97;19.83;;;6.60;99.90;;;;;;5068802;28;20040;-67
2023/04/07 06:40:42;;;;;;;40.70;21.73;;;6.10;99.90;;;;;;5083710;28;20034;-67
2023/04/07 06:43:08;;;;;;;40.05;22.35;;;6.60;99.90;;;;;;5087747;28;20070;-67
2023/04/07 06:45:34;;;;;;;33.58;18.52;;;6.60;99.90;;;;;;5087503;28;20040;-67
2023/04/07 06:48:00;;;;;;;36.33;20.98;;;6.70;99.90;;;;;;5050532;28;20048;-67
2023/04/07 06:50:25;;;;;;;36.65;19.58;;;6.70;99.90;;;;;;5064441;28;20502;-67
2023/04/07 06:52:51;;;;;;;32.10;19.70;;;6.70;99.90;;;;;;5072454;28;20186;-67
2023/04/07 06:55:17;;;;;;;34.97;19.45;;;6.80;99.90;;;;;;5087157;28;20115;-67
2023/04/07 06:57:42;;;;;;;27.77;19.23;;;6.80;99.90;;;;;;5068850;28;20087;-67
2023/04/07 07:00:09;;;;;;;35.95;20.50;;;6.90;99.90;;;;;;5058100;28;20040;-67
2023/04/07 07:02:35;;;;;;;34.33;19.95;;;6.90;99.90;;;;;;5053545;28;20040;-67
2023/04/07 07:05:02;;;;;;;36.85;20.30;;;6.90;99.90;;;;;;5070111;28;20115;-67
2023/04/07 07:07:28;;;;;;;30.30;19.00;;;7.00;99.90;;;;;;5070156;28;20048;-67
2023/04/07 07:09:54;;;;;;;31.63;19.10;;;7.00;99.90;;;;;;5072123;28;20051;-67
2023/04/07 07:12:19;;;;;;;30.60;19.23;;;7.00;99.90;;;;;;5071468;28;20044;-67
2023/04/07 07:14:45;;;;;;;27.63;15.75;;;7.10;99.90;;;;;;5054006;28;20120;-67
2023/04/07 07:17:11;;;;;;;32.33;19.10;;;7.10;99.90;;;;;;5057529;28;20042;-67
2023/04/07 07:19:37;;;;;;;32.17;19.73;;;7.10;99.90;;;;;;5061467;28;20082;-67
2023/04/07 07:22:03;;;;;;;31.02;18.70;;;7.10;99.90;;;;;;5086940;28;20390;-67
2023/04/07 07:24:32;;;;;;;229.02;37.95;;;7.20;99.90;;;;;;5071803;28;20044;-67
2023/04/07 07:26:58;;;;;;;71.85;24.05;;;7.30;99.90;;;;;;5069568;28;20048;-67
2023/04/07 07:29:24;;;;;;;25.58;17.70;;;7.30;99.90;;;;;;5068965;28;20382;-67
2023/04/07 07:31:50;;;;;;;29.42;18.33;;;7.30;99.90;;;;;;5071543;28;20043;-67
2023/04/07 07:34:16;;;;;;;30.35;17.58;;;7.30;99.90;;;;;;5070994;28;20036;-68
2023/04/07 07:36:41;;;;;;;28.88;17.73;;;7.40;99.90;;;;;;5071641;28;20481;-67
2023/04/07 07:39:07;;;;;;;29.40;17.10;;;7.40;99.90;;;;;;5068808;28;20083;-68
2023/04/07 07:41:33;;;;;;;27.17;17.50;;;7.40;99.90;;;;;;5071458;28;20060;-68
2023/04/07 07:43:59;;;;;;;27.65;18.23;;;7.40;99.90;;;;;;5071565;28;20029;-68
2023/04/07 07:46:26;;;;;;;26.20;17.10;;;7.40;99.90;;;;;;5071043;28;20036;-67
2023/04/07 07:48:52;;;;;;;26.80;17.50;;;7.40;99.90;;;;;;5068552;28;20041;-68
2023/04/07 07:51:18;;;;;;;28.73;17.65;;;7.50;99.90;;;;;;5071140;28;20041;-67
2023/04/07 07:53:44;;;;;;;30.25;19.15;;;7.50;99.90;;;;;;5069419;28;20036;-67
2023/04/07 07:56:10;;;;;;;25.50;16.85;;;7.60;99.90;;;;;;5055406;28;20052;-67
2023/04/07 07:58:36;;;;;;;22.40;15.85;;;7.60;99.90;;;;;;5071188;28;20112;-67
2023/04/07 08:01:02;;;;;;;437.77;59.90;;;7.70;99.90;;;;;;5070286;28;20032;-67
2023/04/07 08:03:28;;;;;;;41.15;17.27;;;7.70;99.90;;;;;;5070266;28;20075;-67
2023/04/07 08:05:54;;;;;;;21.65;14.43;;;7.70;99.90;;;;;;5067026;28;20068;-67
2023/04/07 08:08:20;;;;;;;21.58;14.30;;;7.70;99.90;;;;;;5051783;28;20105;-67
2023/04/07 08:10:45;;;;;;;23.17;15.50;;;7.80;99.90;;;;;;5069014;28;20497;-67
2023/04/07 08:13:11;;;;;;;23.80;15.63;;;7.70;99.90;;;;;;5052078;28;20045;-67
2023/04/07 08:15:38;;;;;;;18.73;13.43;;;7.80;99.90;;;;;;5069377;28;20051;-67
2023/04/07 08:18:05;;;;;;;21.63;13.52;;;7.80;99.90;;;;;;5070704;28;20174;-67
2023/04/07 08:20:31;;;;;;;19.65;12.40;;;7.80;99.90;;;;;;5083294;28;20041;-67
2023/04/07 08:22:57;;;;;;;19.15;13.15;;;7.90;99.90;;;;;;5070643;28;20036;-67
2023/04/07 08:25:23;;;;;;;22.33;13.25;;;7.90;99.90;;;;;;5062346;28;20395;-67
2023/04/07 08:27:49;;;;;;;21.48;13.30;;;7.90;99.90;;;;;;5068300;28;20110;-67
2023/04/07 08:30:15;;;;;;;20.73;13.02;;;7.80;99.90;;;;;;5070676;28;20172;-67
2023/04/07 08:32:43;;;;;;;19.33;13.38;;;7.90;99.90;;;;;;5067205;28;20102;-67
2023/04/07 08:35:09;;;;;;;18.17;12.75;;;8.00;99.90;;;;;;5052383;28;20454;-67
2023/04/07 08:37:36;;;;;;;15.98;12.18;;;8.10;99.90;;;;;;5070138;28;20040;-67
2023/04/07 08:40:03;;;;;;;18.40;12.43;;;8.20;99.90;;;;;;5067409;28;20089;-67
2023/04/07 08:42:31;;;;;;;17.75;12.18;;;8.20;99.90;;;;;;5067516;28;20102;-67
2023/04/07 08:45:03;;;;;;;17.50;12.73;;;8.20;99.90;;;;;;5070548;28;20033;-67
2023/04/07 08:47:33;;;;;;;;;;;8.30;99.90;;;;;;5061182;28;20083;-67
2023/04/07 08:50:02;;;;;;;16.27;10.82;;;8.40;99.90;;;;;;5070097;28;20393;-67
2023/04/07 08:52:48;;;;;;;16.80;12.02;;;8.50;99.90;;;;;;5069000;28;20029;-67
2023/04/07 08:55:14;;;;;;;16.55;10.55;;;8.50;99.90;;;;;;5059228;28;20056;-67
2023/04/07 08:57:41;;;;;;;14.52;11.00;;;8.50;99.90;;;;;;5068066;28;20453;-67
2023/04/07 09:00:08;;;;;;;291.30;41.92;;;8.60;99.90;;;;;;5067779;28;20039;-67
2023/04/07 09:02:39;;;;;;;19.65;12.35;;;8.60;99.90;;;;;;5062290;28;20389;-67
2023/04/07 09:05:07;;;;;;;54.28;16.13;;;8.60;99.90;;;;;;5051884;28;20383;-67
2023/04/07 09:07:35;;;;;;;15.70;11.00;;;8.70;99.90;;;;;;5067990;28;20041;-67
2023/04/07 09:10:02;;;;;;;17.23;11.15;;;8.80;99.90;;;;;;5069649;28;20028;-67
2023/04/07 09:12:28;;;;;;;18.45;12.45;;;8.80;99.90;;;;;;5067997;28;20485;-67
2023/04/07 09:14:55;;;;;;;19.45;12.30;;;8.80;99.90;;;;;;5070000;28;20037;-67
2023/04/07 09:17:21;;;;;;;19.33;12.23;;;8.90;99.90;;;;;;5066008;28;20037;-67
2023/04/07 09:19:47;;;;;;;13.93;10.48;;;9.00;99.90;;;;;;5062433;28;20032;-67
2023/04/07 09:22:13;;;;;;;17.40;10.80;;;9.00;99.90;;;;;;5077548;28;20040;-67
2023/04/07 09:24:42;;;;;;;17.33;12.25;;;9.10;99.90;;;;;;5058751;28;20049;-67
2023/04/07 09:27:13;;;;;;;13.73;9.32;;;9.30;99.90;;;;;;5069044;28;20040;-67
2023/04/07 09:29:41;;;;;;;12.57;9.48;;;9.40;99.90;;;;;;5048812;28;20048;-67
2023/04/07 09:32:07;;;;;;;14.05;10.23;;;9.40;99.90;;;;;;5065852;28;20135;-67
2023/04/07 09:34:36;;;;;;;13.43;9.68;;;9.40;99.90;;;;;;5067602;28;20035;-67
2023/04/07 09:37:03;;;;;;;14.60;10.10;;;9.40;99.90;;;;;;5047921;28;20040;-67
2023/04/07 09:39:29;;;;;;;14.93;9.88;;;9.40;99.90;;;;;;5054404;28;20043;-67
2023/04/07 09:41:55;;;;;;;13.98;9.68;;;9.30;99.90;;;;;;5069563;28;20029;-67
2023/04/07 09:44:22;;;;;;;13.18;8.88;;;9.50;99.90;;;;;;5068476;28;20060;-67
2023/04/07 09:46:51;;;;;;;11.95;8.85;;;9.80;99.90;;;;;;5068967;28;20036;-67
2023/04/07 09:49:19;;;;;;;10.20;7.88;;;9.90;99.90;;;;;;5068521;28;20056;-67
2023/04/07 09:51:54;;;;;;;11.23;8.20;;;9.90;99.90;;;;;;5038701;28;20060;-67
2023/04/07 09:54:35;;;;;;;11.20;7.97;;;9.90;99.90;;;;;;5068153;28;20029;-67
2023/04/07 09:57:05;;;;;;;12.38;9.00;;;9.80;99.90;;;;;;5068972;28;20472;-67
2023/04/07 09:59:32;;;;;;;11.27;8.02;;;9.70;99.90;;;;;;5052061;28;20445;-67
2023/04/07 10:01:59;;;;;;;12.88;8.65;;;9.70;99.90;;;;;;5067489;28;20105;-67
2023/04/07 10:04:26;;;;;;;11.77;8.32;;;9.60;99.90;;;;;;5061821;28;20070;-67
2023/04/07 10:06:53;;;;;;;13.75;7.88;;;9.60;99.90;;;;;;5071244;28;20115;-67
2023/04/07 10:09:21;;;;;;;15.13;8.13;;;9.60;99.90;;;;;;5070620;28;20266;-67
2023/04/07 10:11:49;;;;;;;20.17;9.05;;;9.60;99.90;;;;;;5073109;28;20374;-67
2023/04/07 10:14:16;;;;;;;9.18;7.47;;;9.50;99.90;;;;;;5061145;28;20366;-67
2023/04/07 10:16:43;;;;;;;11.85;9.07;;;9.50;99.90;;;;;;5070717;28;20119;-67
2023/04/07 10:19:09;;;;;;;10.60;7.97;;;9.60;99.90;;;;;;5073023;28;20032;-67
2023/04/07 10:21:39;;;;;;;12.68;9.07;;;9.70;99.90;;;;;;5073189;28;20107;-67
2023/04/07 10:24:43;;;;;;;12.25;8.60;;;9.60;99.90;;;;;;5072871;28;20078;-66
2023/04/07 10:27:13;;;;;;;12.93;8.70;;;9.60;99.90;;;;;;5070244;28;20040;-67
2023/04/07 10:29:42;;;;;;;11.45;8.77;;;9.50;99.90;;;;;;5070765;28;20040;-67
2023/04/07 10:32:08;;;;;;;14.02;8.80;;;9.40;99.90;;;;;;5070769;28;20484;-67
2023/04/07 10:34:56;;;;;;;12.77;8.88;;;9.30;99.90;;;;;;5070759;28;20078;-67
2023/04/07 10:37:23;;;;;;;12.57;9.00;;;9.20;99.90;;;;;;5070795;28;20547;-67
2023/04/07 10:39:51;;;;;;;12.77;9.15;;;9.20;99.90;;;;;;5072478;28;20039;-67
2023/04/07 10:42:38;;;;;;;12.95;9.38;;;9.10;99.90;;;;;;5069513;28;20040;-67
2023/04/07 10:45:06;;;;;;;13.07;9.02;;;9.20;99.90;;;;;;5071283;28;20098;-67
2023/04/07 10:47:32;;;;;;;12.10;8.75;;;9.20;99.90;;;;;;5067579;28;20032;-67
2023/04/07 10:50:28;;;;;;;14.90;9.45;;;9.20;99.90;;;;;;5063712;28;20110;-67
2023/04/07 10:53:14;;;;;;;12.48;8.35;;;9.30;99.90;;;;;;5071951;28;20599;-67
2023/04/07 10:55:44;;;;;;;10.43;7.70;;;9.30;99.90;;;;;;5072227;28;20043;-66
2023/04/07 10:58:23;;;;;;;12.07;8.57;;;9.40;99.90;;;;;;5071343;28;20036;-66
2023/04/07 11:01:10;;;;;;;11.05;8.25;;;9.40;99.90;;;;;;5052720;28;20162;-66
2023/04/07 11:03:41;;;;;;;11.27;7.82;;;9.40;99.90;;;;;;5071305;28;20493;-66
2023/04/07 11:06:13;;;;;;;11.88;8.30;;;9.40;99.90;;;;;;5070315;28;20051;-67
2023/04/07 11:08:43;;;;;;;;;;;9.50;99.90;;;;;;5072631;28;20036;-67
2023/04/07 11:11:14;;;;;;;11.93;8.80;;;9.60;99.90;;;;;;5072121;28;20026;-67
2023/04/07 11:13:48;;;;;;;10.27;7.82;;;9.80;99.90;;;;;;5070560;28;20040;-67
2023/04/07 11:16:16;;;;;;;14.55;9.32;;;9.90;99.90;;;;;;5070045;28;20040;-66
2023/04/07 11:18:43;;;;;;;11.30;8.13;;;10.00;99.90;;;;;;5069704;28;20146;-66
2023/04/07 11:21:09;;;;;;;11.82;8.07;;;10.00;99.90;;;;;;5070707;28;20037;-67
2023/04/07 11:23:44;;;;;;;10.90;7.85;;;10.10;99.90;;;;;;5071413;28;20489;-66
2023/04/07 11:26:12;;;;;;;10.18;7.43;;;10.10;99.90;;;;;;5071639;28;20029;-67
2023/04/07 11:28:52;;;;;;;10.43;6.90;;;10.10;99.90;;;;;;5070684;28;20252;-66
2023/04/07 11:31:36;;;;;;;9.27;7.45;;;10.10;99.90;;;;;;5068847;28;20120;-66
2023/04/07 11:34:06;;;;;;;9.52;6.65;;;10.00;99.90;;;;;;5070174;28;20068;-67
2023/04/07 11:36:34;;;;;;;10.32;7.82;;;10.00;99.90;;;;;;5071964;28;20044;-67
2023/04/07 11:39:01;;;;;;;9.35;7.50;;;10.00;99.90;;;;;;5058016;28;20095;-66
2023/04/07 11:41:29;;;;;;;9.18;6.97;;;10.10;99.90;;;;;;5071418;28;20041;-66
2023/04/07 11:44:11;;;;;;;11.45;6.95;;;10.10;99.90;;;;;;5067421;28;20490;-67
2023/04/07 11:46:58;;;;;;;8.68;6.80;;;10.10;99.90;;;;;;5066822;28;20071;-66
2023/04/07 11:49:28;;;;;;;11.02;6.88;;;10.10;99.90;;;;;;5070476;28;20156;-66
2023/04/07 11:52:08;;;;;;;11.85;7.18;;;10.20;99.90;;;;;;5058120;28;20076;-66
2023/04/07 11:54:46;;;;;;;10.65;6.63;;;10.30;99.90;;;;;;5071315;28;20036;-66
2023/04/07 11:57:13;;;;;;;9.90;7.25;;;10.20;99.90;;;;;;5069181;28;20066;-66
2023/04/07 11:59:40;;;;;;;9.63;6.75;;;10.40;99.90;;;;;;5052596;28;20438;-66
2023/04/07 12:02:06;;;;;;;9.23;6.05;;;10.50;99.90;;;;;;5068895;28;20067;-66
2023/04/07 12:04:32;;;;;;;7.45;5.63;;;10.70;99.90;;;;;;5068358;28;20037;-66
2023/04/07 12:07:08;;;;;;;7.35;5.72;;;10.80;99.90;;;;;;5071116;28;20028;-66
2023/04/07 12:09:35;;;;;;;8.23;5.55;;;10.90;99.90;;;;;;5070711;28;20041;-66
2023/04/07 12:12:02;;;;;;;8.55;5.88;;;11.10;99.90;;;;;;5071198;28;20037;-66
2023/04/07 12:14:28;;;;;;;7.30;5.65;;;11.10;99.90;;;;;;5071128;28;20045;-66
2023/04/07 12:16:55;;;;;;;11.93;6.15;;;11.00;99.90;;;;;;5049748;28;20044;-66
2023/04/07 12:19:28;;;;;;;8.68;6.40;;;11.00;99.90;;;;;;5070781;28;20044;-66
2023/04/07 12:21:54;;;;;;;7.55;5.88;;;11.20;99.90;;;;;;5068813;28;20381;-66
2023/04/07 12:24:21;;;;;;;9.80;6.22;;;11.30;99.90;;;;;;5068961;28;20040;-66
2023/04/07 12:26:47;;;;;;;8.75;6.40;;;11.20;99.90;;;;;;5069071;28;20403;-66
2023/04/07 12:29:13;;;;;;;9.50;6.55;;;11.30;99.90;;;;;;5070290;28;20036;-66
2023/04/07 12:31:38;;;;;;;11.27;7.10;;;11.40;99.90;;;;;;5061564;28;20047;-66
2023/04/07 12:34:05;;;;;;;8.63;6.65;;;11.40;99.90;;;;;;5070731;28;20068;-66
2023/04/07 12:36:30;;;;;;;9.15;6.85;;;11.60;99.90;;;;;;5060231;28;20129;-66
2023/04/07 12:38:57;;;;;;;6.85;5.70;;;11.70;99.90;;;;;;5070259;28;20033;-66
2023/04/07 12:41:24;;;;;;;11.02;6.50;;;11.90;99.90;;;;;;5068064;28;20098;-66
2023/04/07 12:43:50;;;;;;;8.18;6.05;;;11.80;99.90;;;;;;5047402;28;20563;-66